createdAt,value
2022-09-27T00:00:17.009Z,14.19
2022-09-27T00:03:09.959Z,14.25
2022-09-27T00:05:33.283Z,14.20
2022-09-27T00:07:31.559Z,14.29
2022-09-27T00:09:31.300Z,14.30
2022-09-27T00:11:31.869Z,14.27
2022-09-27T00:13:30.413Z,14.19
2022-09-27T00:15:28.531Z,14.13
2022-09-27T00:17:26.741Z,14.04
2022-09-27T00:19:25.823Z,13.99
2022-09-27T00:21:23.995Z,14.02
2022-09-27T00:23:22.230Z,14.10
2022-09-27T00:25:22.344Z,14.11
2022-09-27T00:27:20.798Z,14.01
2022-09-27T00:29:20.624Z,14.01
2022-09-27T00:31:22.122Z,14.11
2022-09-27T00:33:20.577Z,14.06
2022-09-27T00:35:18.895Z,13.99
2022-09-27T00:37:17.292Z,13.95
2022-09-27T00:39:15.798Z,13.88
2022-09-27T00:41:18.417Z,13.95
2022-09-27T00:43:20.130Z,14.04
2022-09-27T00:45:19.011Z,13.99
2022-09-27T00:47:26.385Z,14.00
2022-09-27T00:49:28.818Z,13.87
2022-09-27T00:51:27.129Z,13.81
2022-09-27T00:53:29.757Z,13.75
2022-09-27T00:55:31.773Z,13.69
2022-09-27T00:57:31.861Z,13.59
2022-09-27T00:59:35.089Z,13.56
2022-09-27T01:01:33.944Z,13.52
2022-09-27T01:03:38.990Z,13.49
2022-09-27T01:05:37.521Z,13.44
2022-09-27T01:07:36.259Z,13.45
2022-09-27T01:09:35.478Z,13.42
2022-09-27T01:11:42.782Z,13.36
2022-09-27T01:13:54.930Z,13.41
2022-09-27T01:15:58.356Z,13.41
2022-09-27T01:18:12.596Z,13.37
2022-09-27T01:20:53.264Z,13.32
2022-09-27T01:23:07.122Z,13.33
2022-09-27T01:25:25.263Z,13.36
2022-09-27T01:28:05.038Z,13.36
2022-09-27T01:30:20.374Z,13.38
2022-09-27T01:32:30.396Z,13.34
2022-09-27T01:34:36.095Z,13.33
2022-09-27T01:36:44.568Z,13.28
2022-09-27T01:38:53.694Z,13.29
2022-09-27T01:40:59.510Z,13.31
2022-09-27T01:43:17.936Z,13.33
2022-09-27T01:45:23.031Z,13.31
2022-09-27T01:47:46.622Z,13.36
2022-09-27T01:50:15.525Z,13.33
2022-09-27T01:52:20.133Z,13.28
2022-09-27T01:54:24.929Z,13.28
2022-09-27T01:57:01.753Z,13.22
2022-09-27T01:59:10.698Z,13.27
2022-09-27T02:01:17.740Z,13.29
2022-09-27T02:03:20.539Z,13.31
2022-09-27T02:05:54.761Z,13.30
2022-09-27T02:08:19.842Z,13.34
2022-09-27T02:10:22.915Z,13.34
2022-09-27T02:12:28.851Z,13.30
2022-09-27T02:14:35.444Z,13.30
2022-09-27T02:16:47.559Z,13.28
2022-09-27T02:18:55.647Z,13.30
2022-09-27T02:20:59.387Z,13.29
2022-09-27T02:23:04.788Z,13.31
2022-09-27T02:25:11.369Z,13.29
2022-09-27T02:27:15.824Z,13.28
2022-09-27T02:29:19.884Z,13.22
2022-09-27T02:31:22.653Z,13.25
2022-09-27T02:33:26.071Z,13.19
2022-09-27T02:35:27.900Z,13.20
2022-09-27T02:37:26.353Z,13.21
2022-09-27T02:39:25.362Z,13.26
2022-09-27T02:41:34.315Z,13.26
2022-09-27T02:43:34.645Z,13.26
2022-09-27T02:45:47.123Z,13.24
2022-09-27T02:47:57.047Z,13.24
2022-09-27T02:50:10.817Z,13.27
2022-09-27T02:52:28.164Z,13.24
2022-09-27T02:54:37.393Z,13.22
2022-09-27T02:57:07.550Z,13.13
2022-09-27T02:59:34.331Z,13.20
2022-09-27T03:01:58.521Z,13.19
2022-09-27T03:04:11.698Z,13.21
2022-09-27T03:06:14.130Z,13.22
2022-09-27T03:08:13.936Z,13.23
2022-09-27T03:10:18.783Z,13.20
2022-09-27T03:12:25.961Z,13.20
2022-09-27T03:14:24.311Z,13.21
2022-09-27T03:16:34.015Z,13.23
2022-09-27T03:18:51.050Z,13.22
2022-09-27T03:21:11.151Z,13.22
2022-09-27T03:23:09.610Z,13.20
2022-09-27T03:25:11.151Z,13.24
2022-09-27T03:27:10.129Z,13.21
2022-09-27T03:29:08.424Z,13.20
2022-09-27T03:31:07.728Z,13.17
2022-09-27T03:33:26.314Z,13.17
2022-09-27T03:35:29.120Z,13.22
2022-09-27T03:37:29.573Z,13.22
2022-09-27T03:39:28.014Z,13.24
2022-09-27T03:41:26.352Z,13.37
2022-09-27T03:43:24.667Z,13.37
2022-09-27T03:45:23.475Z,13.29
2022-09-27T03:47:23.079Z,13.28
2022-09-27T03:49:21.376Z,13.25
2022-09-27T03:51:20.110Z,13.27
2022-09-27T03:53:20.742Z,13.27
2022-09-27T03:55:19.230Z,13.35
2022-09-27T03:57:17.758Z,13.34
2022-09-27T03:59:16.795Z,13.34
2022-09-27T04:01:39.149Z,13.36
2022-09-27T04:03:56.580Z,13.36
2022-09-27T04:06:04.320Z,13.29
2022-09-27T04:08:11.159Z,13.23
2022-09-27T04:10:11.197Z,13.22
2022-09-27T04:12:09.793Z,13.34
2022-09-27T04:14:09.086Z,13.31
2022-09-27T04:16:17.454Z,13.28
2022-09-27T04:18:23.156Z,13.28
2022-09-27T04:20:40.251Z,13.40
2022-09-27T04:22:44.160Z,13.44
2022-09-27T04:24:42.867Z,13.39
2022-09-27T04:26:57.166Z,13.36
2022-09-27T04:28:57.927Z,13.37
2022-09-27T04:30:56.824Z,13.45
2022-09-27T04:33:15.595Z,13.60
2022-09-27T04:35:43.382Z,13.63
2022-09-27T04:37:42.093Z,13.58
2022-09-27T04:39:40.390Z,13.53
2022-09-27T04:41:40.355Z,13.55
2022-09-27T04:43:40.187Z,13.54
2022-09-27T04:45:38.329Z,13.53
2022-09-27T04:47:36.641Z,13.50
2022-09-27T04:49:35.112Z,13.51
2022-09-27T04:51:33.293Z,13.66
2022-09-27T04:53:31.886Z,13.77
2022-09-27T04:55:30.786Z,13.77
2022-09-27T04:57:29.710Z,13.80
2022-09-27T04:59:29.458Z,13.74
2022-09-27T05:01:27.683Z,13.67
2022-09-27T05:03:35.051Z,13.63
2022-09-27T05:05:41.289Z,13.63
2022-09-27T05:07:40.309Z,13.65
2022-09-27T05:09:43.866Z,13.66
2022-09-27T05:11:42.223Z,13.73
2022-09-27T05:14:00.651Z,13.84
2022-09-27T05:16:05.540Z,13.88
2022-09-27T05:18:22.951Z,13.92
2022-09-27T05:20:47.408Z,13.87
2022-09-27T05:22:53.578Z,13.83
2022-09-27T05:24:52.165Z,13.84
2022-09-27T05:26:50.961Z,13.83
2022-09-27T05:28:49.194Z,13.87
2022-09-27T05:30:47.876Z,13.90
2022-09-27T05:32:53.269Z,13.82
2022-09-27T05:34:57.246Z,13.86
2022-09-27T05:36:58.043Z,13.91
2022-09-27T05:38:56.796Z,13.90
2022-09-27T05:40:55.967Z,13.93
2022-09-27T05:42:56.377Z,13.92
2022-09-27T05:44:54.579Z,13.79
2022-09-27T05:46:53.066Z,13.74
2022-09-27T05:48:52.972Z,13.81
2022-09-27T05:50:51.157Z,13.91
2022-09-27T05:52:49.639Z,13.98
2022-09-27T05:54:49.503Z,14.15
2022-09-27T05:56:47.926Z,14.18
2022-09-27T05:58:57.100Z,14.10
2022-09-27T06:00:57.092Z,14.02
2022-09-27T06:03:27.300Z,13.94
2022-09-27T06:05:51.443Z,13.91
2022-09-27T06:08:08.383Z,13.88
2022-09-27T06:10:12.704Z,13.94
2022-09-27T06:12:11.907Z,13.98
2022-09-27T06:14:10.192Z,13.96
2022-09-27T06:16:19.350Z,14.03
2022-09-27T06:18:18.247Z,14.07
2022-09-27T06:20:19.851Z,14.16
2022-09-27T06:22:20.965Z,14.27
2022-09-27T06:24:28.456Z,14.41
2022-09-27T06:26:29.514Z,14.56
2022-09-27T06:28:51.240Z,14.60
2022-09-27T06:30:51.663Z,14.61
2022-09-27T06:33:03.465Z,14.66
2022-09-27T06:35:05.400Z,14.66
2022-09-27T06:37:03.865Z,14.52
2022-09-27T06:39:06.763Z,14.39
2022-09-27T06:41:36.105Z,14.31
2022-09-27T06:43:53.200Z,14.33
2022-09-27T06:46:10.264Z,14.30
2022-09-27T06:48:30.224Z,14.09
2022-09-27T06:50:49.294Z,14.17
2022-09-27T06:52:51.613Z,14.21
2022-09-27T06:54:52.349Z,14.22
2022-09-27T06:56:52.246Z,14.12
2022-09-27T06:59:08.150Z,14.10
2022-09-27T07:01:16.608Z,14.13
2022-09-27T07:03:40.780Z,14.13
2022-09-27T07:05:59.232Z,14.12
2022-09-27T07:08:20.662Z,14.20
2022-09-27T07:10:20.523Z,14.25
2022-09-27T07:12:19.777Z,14.27
2022-09-27T07:14:18.227Z,14.36
2022-09-27T07:16:16.626Z,14.26
2022-09-27T07:18:15.231Z,14.26
2022-09-27T07:20:13.881Z,14.27
2022-09-27T07:22:12.340Z,14.33
2022-09-27T07:24:12.880Z,14.35
2022-09-27T07:26:14.006Z,14.39
2022-09-27T07:28:21.606Z,14.48
2022-09-27T07:30:22.475Z,14.59
2022-09-27T07:32:21.894Z,14.56
2022-09-27T07:34:20.592Z,14.53
2022-09-27T07:36:18.791Z,14.46
2022-09-27T07:38:18.721Z,14.60
2022-09-27T07:40:17.161Z,14.69
2022-09-27T07:42:16.928Z,14.71
2022-09-27T07:44:19.604Z,14.79
2022-09-27T07:46:36.388Z,14.94
2022-09-27T07:48:56.460Z,14.95
2022-09-27T07:51:12.209Z,14.95
2022-09-27T07:53:19.613Z,14.91
2022-09-27T07:55:53.262Z,14.70
2022-09-27T07:58:08.860Z,14.71
2022-09-27T08:00:09.725Z,14.82
2022-09-27T08:02:16.486Z,14.71
2022-09-27T08:04:15.457Z,14.74
2022-09-27T08:06:14.356Z,14.77
2022-09-27T08:08:13.690Z,14.70
2022-09-27T08:10:12.000Z,14.70
2022-09-27T08:12:11.141Z,14.68
2022-09-27T08:14:12.232Z,14.65
2022-09-27T08:16:14.070Z,14.72
2022-09-27T08:18:32.732Z,14.79
2022-09-27T08:20:43.601Z,14.83
2022-09-27T08:23:00.295Z,14.92
2022-09-27T08:25:05.777Z,14.92
2022-09-27T08:27:11.957Z,14.86
2022-09-27T08:29:26.424Z,14.93
2022-09-27T08:31:26.621Z,14.99
2022-09-27T08:33:31.904Z,15.06
2022-09-27T08:35:34.077Z,15.17
2022-09-27T08:37:33.230Z,15.25
2022-09-27T08:39:31.510Z,15.38
2022-09-27T08:41:39.340Z,15.50
2022-09-27T08:43:47.978Z,15.73
2022-09-27T08:46:09.014Z,15.93
2022-09-27T08:48:11.101Z,15.97
2022-09-27T08:50:23.672Z,16.10
2022-09-27T08:52:27.847Z,16.24
2022-09-27T08:54:30.089Z,16.32
2022-09-27T08:56:28.572Z,16.34
2022-09-27T08:58:29.776Z,16.41
2022-09-27T09:00:30.617Z,16.73
2022-09-27T09:02:30.736Z,17.00
2022-09-27T09:04:36.418Z,17.23
2022-09-27T09:06:42.260Z,17.38
2022-09-27T09:08:51.093Z,17.26
2022-09-27T09:11:11.999Z,17.43
2022-09-27T09:13:20.969Z,17.82
2022-09-27T09:15:34.056Z,18.28
2022-09-27T09:17:50.965Z,19.33
2022-09-27T09:20:17.378Z,20.87
2022-09-27T09:22:40.308Z,20.26
2022-09-27T09:24:52.895Z,20.43
2022-09-27T09:27:01.747Z,21.18
2022-09-27T09:29:10.991Z,21.83
2022-09-27T09:31:16.478Z,21.41
2022-09-27T09:33:24.232Z,21.53
2022-09-27T09:35:27.486Z,23.76
2022-09-27T09:37:38.042Z,25.94
2022-09-27T09:39:42.496Z,26.13
2022-09-27T09:41:45.064Z,25.88
2022-09-27T09:43:48.199Z,27.13
2022-09-27T09:45:51.614Z,27.66
2022-09-27T09:47:57.526Z,27.75
2022-09-27T09:50:02.234Z,28.34
2022-09-27T09:52:08.604Z,28.33
2022-09-27T09:54:15.713Z,26.15
2022-09-27T09:56:19.548Z,25.07
2022-09-27T09:58:25.135Z,25.84
2022-09-27T10:00:32.230Z,25.29
2022-09-27T10:02:35.160Z,24.17
2022-09-27T10:04:40.336Z,22.93
2022-09-27T10:06:40.753Z,21.85
2022-09-27T10:08:38.991Z,20.84
2022-09-27T10:10:52.752Z,20.45
2022-09-27T10:12:58.411Z,20.19
2022-09-27T10:15:07.769Z,20.11
2022-09-27T10:17:14.644Z,20.80
2022-09-27T10:19:14.924Z,21.24
2022-09-27T10:21:19.388Z,21.67
2022-09-27T10:23:21.256Z,21.99
2022-09-27T10:25:54.968Z,23.93
2022-09-27T10:28:06.388Z,25.33
2022-09-27T10:30:22.353Z,24.77
2022-09-27T10:32:27.248Z,24.21
2022-09-27T10:34:45.638Z,23.79
2022-09-27T10:36:44.969Z,23.49
2022-09-27T10:38:54.593Z,23.10
2022-09-27T10:41:18.521Z,22.48
2022-09-27T10:43:29.750Z,21.48
2022-09-27T10:45:35.380Z,21.41
2022-09-27T10:47:41.392Z,21.07
2022-09-27T10:50:07.771Z,21.00
2022-09-27T10:52:32.569Z,21.10
2022-09-27T10:54:35.852Z,21.34
2022-09-27T10:56:36.272Z,21.65
2022-09-27T10:58:39.304Z,21.65
2022-09-27T11:00:42.999Z,21.18
2022-09-27T11:02:42.649Z,21.26
2022-09-27T11:05:05.061Z,21.11
2022-09-27T11:07:13.685Z,21.15
2022-09-27T11:09:19.952Z,21.05
2022-09-27T11:11:25.785Z,21.17
2022-09-27T11:13:24.047Z,21.00
2022-09-27T11:15:25.296Z,20.78
2022-09-27T11:17:32.493Z,20.45
2022-09-27T11:19:54.144Z,20.08
2022-09-27T11:22:01.890Z,19.95
2022-09-27T11:24:27.033Z,19.86
2022-09-27T11:26:38.676Z,19.97
2022-09-27T11:28:50.277Z,20.04
2022-09-27T11:31:21.971Z,20.25
2022-09-27T11:33:51.973Z,20.88
2022-09-27T11:36:03.184Z,21.11
2022-09-27T11:38:29.562Z,21.37
2022-09-27T11:40:51.680Z,21.34
2022-09-27T11:43:22.333Z,21.09
2022-09-27T11:45:50.294Z,21.08
2022-09-27T11:48:03.884Z,21.32
2022-09-27T11:50:44.188Z,21.56
2022-09-27T11:52:54.965Z,21.86
2022-09-27T11:55:09.028Z,21.49
2022-09-27T11:57:19.039Z,21.76
2022-09-27T11:59:37.781Z,22.16
2022-09-27T12:01:47.221Z,22.27
2022-09-27T12:04:11.473Z,22.15
2022-09-27T12:06:14.470Z,22.17
2022-09-27T12:08:32.902Z,22.46
2022-09-27T12:10:31.938Z,22.62
2022-09-27T12:12:33.852Z,22.84
2022-09-27T12:14:37.997Z,22.15
2022-09-27T12:16:41.040Z,22.17
2022-09-27T12:18:41.567Z,22.22
2022-09-27T12:20:56.964Z,22.43
2022-09-27T12:23:01.288Z,22.48
2022-09-27T12:25:20.729Z,22.51
2022-09-27T12:27:38.696Z,22.47
2022-09-27T12:29:42.451Z,22.52
2022-09-27T12:31:48.254Z,22.85
2022-09-27T12:33:55.240Z,22.77
2022-09-27T12:35:56.908Z,22.99
2022-09-27T12:38:00.831Z,23.09
2022-09-27T12:40:08.388Z,23.33
2022-09-27T12:42:17.911Z,23.26
2022-09-27T12:44:18.001Z,23.36
2022-09-27T12:46:40.908Z,23.15
2022-09-27T12:48:46.906Z,23.16
2022-09-27T12:50:51.918Z,23.16
2022-09-27T12:52:56.176Z,23.21
2022-09-27T12:55:16.196Z,23.21
2022-09-27T12:57:31.319Z,23.14
2022-09-27T12:59:51.859Z,23.12
2022-09-27T13:02:13.844Z,22.89
2022-09-27T13:04:52.605Z,22.81
2022-09-27T13:07:08.867Z,22.82
2022-09-27T13:09:42.852Z,22.91
2022-09-27T13:11:49.549Z,23.08
2022-09-27T13:13:48.170Z,23.11
2022-09-27T13:15:48.121Z,23.26
2022-09-27T13:17:56.360Z,23.35
2022-09-27T13:20:46.309Z,23.46
2022-09-27T13:23:09.581Z,23.53
2022-09-27T13:25:43.309Z,23.77
2022-09-27T13:27:58.428Z,24.00
2022-09-27T13:30:46.231Z,24.09
2022-09-27T13:33:33.122Z,24.15
2022-09-27T13:35:33.615Z,24.21
2022-09-27T13:37:59.349Z,24.05
2022-09-27T13:40:34.585Z,23.87
2022-09-27T13:42:48.064Z,23.67
2022-09-27T13:44:58.689Z,23.59
2022-09-27T13:47:01.122Z,23.59
2022-09-27T13:49:12.978Z,23.68
2022-09-27T13:51:41.654Z,23.73
2022-09-27T13:53:46.604Z,23.69
2022-09-27T13:55:47.771Z,23.76
2022-09-27T13:57:55.535Z,23.72
2022-09-27T14:00:04.363Z,23.73
2022-09-27T14:02:22.732Z,23.71
2022-09-27T14:04:27.639Z,23.61
2022-09-27T14:06:30.337Z,23.36
2022-09-27T14:08:36.720Z,23.29
2022-09-27T14:10:36.630Z,23.17
2022-09-27T14:12:36.593Z,23.05
2022-09-27T14:14:38.044Z,22.82
2022-09-27T14:16:41.814Z,22.71
2022-09-27T14:18:44.794Z,22.66
2022-09-27T14:20:47.690Z,22.51
2022-09-27T14:23:18.407Z,22.23
2022-09-27T14:25:20.437Z,21.94
2022-09-27T14:27:23.335Z,21.53
2022-09-27T14:29:28.486Z,21.45
2022-09-27T14:31:26.920Z,21.25
2022-09-27T14:33:36.051Z,21.12
2022-09-27T14:36:04.698Z,21.18
2022-09-27T14:38:33.097Z,21.11
2022-09-27T14:40:29.946Z,21.09
2022-09-27T14:42:32.528Z,21.01
2022-09-27T14:44:31.500Z,20.81
2022-09-27T14:46:31.638Z,20.58
2022-09-27T14:48:32.369Z,20.40
2022-09-27T14:50:32.127Z,20.20
2022-09-27T14:52:33.155Z,20.13
2022-09-27T14:54:32.784Z,20.11
2022-09-27T14:56:35.138Z,20.05
2022-09-27T14:58:46.763Z,19.95
2022-09-27T15:00:48.098Z,19.87
2022-09-27T15:02:46.604Z,19.76
2022-09-27T15:04:47.123Z,19.58
2022-09-27T15:06:46.447Z,19.24
2022-09-27T15:08:49.396Z,18.93
2022-09-27T15:10:50.367Z,18.57
2022-09-27T15:12:54.726Z,17.44
2022-09-27T15:14:54.988Z,16.69
2022-09-27T15:16:54.007Z,16.11
2022-09-27T15:19:06.244Z,14.94
2022-09-27T15:21:07.681Z,13.95
2022-09-27T15:23:06.744Z,13.48
2022-09-27T15:25:19.630Z,13.28
2022-09-27T15:27:35.787Z,13.48
2022-09-27T15:29:41.712Z,13.21
2022-09-27T15:31:45.360Z,13.18
2022-09-27T15:33:44.489Z,13.13
2022-09-27T15:35:50.428Z,13.13
2022-09-27T15:37:48.684Z,13.28
2022-09-27T15:39:47.026Z,13.44
2022-09-27T15:42:05.722Z,13.56
2022-09-27T15:44:36.190Z,13.72
2022-09-27T15:46:39.347Z,13.54
2022-09-27T15:48:37.804Z,13.45
2022-09-27T15:50:38.057Z,13.32
2022-09-27T15:52:43.532Z,13.44
2022-09-27T15:54:41.603Z,13.57
2022-09-27T15:56:41.190Z,13.64
2022-09-27T15:58:41.183Z,13.56
2022-09-27T16:00:52.727Z,13.42
2022-09-27T16:02:54.555Z,13.50
2022-09-27T16:04:53.992Z,13.39
2022-09-27T16:06:52.352Z,13.40
2022-09-27T16:08:50.571Z,13.44
2022-09-27T16:10:51.922Z,13.60
2022-09-27T16:12:51.072Z,13.70
2022-09-27T16:14:49.283Z,13.68
2022-09-27T16:16:51.207Z,13.70
2022-09-27T16:18:50.080Z,13.73
2022-09-27T16:20:48.216Z,13.78
2022-09-27T16:22:46.576Z,13.85
2022-09-27T16:24:49.984Z,13.89
2022-09-27T16:26:48.140Z,14.02
2022-09-27T16:28:46.411Z,14.18
2022-09-27T16:30:45.303Z,14.26
2022-09-27T16:32:48.080Z,14.28
2022-09-27T16:34:46.361Z,14.29
2022-09-27T16:36:44.676Z,14.17
2022-09-27T16:38:44.888Z,14.11
2022-09-27T16:40:44.314Z,14.13
2022-09-27T16:42:44.200Z,14.14
2022-09-27T16:44:42.314Z,14.17
2022-09-27T16:46:42.446Z,14.20
2022-09-27T16:48:42.244Z,14.19
2022-09-27T16:50:57.923Z,14.17
2022-09-27T16:53:00.289Z,14.21
2022-09-27T16:54:59.091Z,14.29
2022-09-27T16:56:57.926Z,14.37
2022-09-27T16:58:57.010Z,14.46
2022-09-27T17:00:59.664Z,14.52
2022-09-27T17:03:00.433Z,14.53
2022-09-27T17:05:00.064Z,14.39
2022-09-27T17:06:58.767Z,14.34
2022-09-27T17:08:57.113Z,14.33
2022-09-27T17:10:57.032Z,14.38
2022-09-27T17:12:57.576Z,14.40
2022-09-27T17:14:56.629Z,14.51
2022-09-27T17:16:57.860Z,14.55
2022-09-27T17:18:56.258Z,14.65
2022-09-27T17:21:01.675Z,14.64
2022-09-27T17:23:00.130Z,14.75
2022-09-27T17:24:58.479Z,14.88
2022-09-27T17:26:56.569Z,14.77
2022-09-27T17:28:57.472Z,14.68
2022-09-27T17:30:58.384Z,14.52
2022-09-27T17:32:58.270Z,14.41
2022-09-27T17:34:59.706Z,14.29
2022-09-27T17:37:00.926Z,14.33
2022-09-27T17:38:59.740Z,14.40
2022-09-27T17:41:02.109Z,14.42
2022-09-27T17:43:00.389Z,14.35
2022-09-27T17:45:05.372Z,14.32
2022-09-27T17:47:24.183Z,14.28
2022-09-27T17:49:48.952Z,14.20
2022-09-27T17:51:49.287Z,14.10
2022-09-27T17:54:07.548Z,14.05
2022-09-27T17:56:06.222Z,13.95
2022-09-27T17:58:05.460Z,13.81
2022-09-27T18:00:09.318Z,13.75
2022-09-27T18:02:13.406Z,13.74
2022-09-27T18:04:14.732Z,13.68
2022-09-27T18:06:16.260Z,13.64
2022-09-27T18:08:16.739Z,13.70
2022-09-27T18:10:21.844Z,13.77
2022-09-27T18:12:20.078Z,13.80
2022-09-27T18:14:18.803Z,13.82
2022-09-27T18:16:20.292Z,13.72
2022-09-27T18:18:19.140Z,13.61
2022-09-27T18:20:17.459Z,13.59
2022-09-27T18:22:17.805Z,13.60
2022-09-27T18:24:16.218Z,13.56
2022-09-27T18:26:16.404Z,13.64
2022-09-27T18:28:14.703Z,13.69
2022-09-27T18:30:13.185Z,13.72
2022-09-27T18:32:11.563Z,13.68
2022-09-27T18:34:10.498Z,13.64
2022-09-27T18:36:12.969Z,13.55
2022-09-27T18:38:11.243Z,13.45
2022-09-27T18:40:11.208Z,13.37
2022-09-27T18:42:11.021Z,13.32
2022-09-27T18:44:09.297Z,13.30
2022-09-27T18:46:33.798Z,13.39
2022-09-27T18:48:28.476Z,13.33
2022-09-27T18:50:26.638Z,13.28
2022-09-27T18:52:24.917Z,13.30
2022-09-27T18:54:24.233Z,13.34
2022-09-27T18:56:22.277Z,13.36
2022-09-27T18:58:21.954Z,13.41
2022-09-27T19:00:20.375Z,13.41
2022-09-27T19:02:18.846Z,13.41
2022-09-27T19:04:24.052Z,13.37
2022-09-27T19:06:24.174Z,13.33
2022-09-27T19:08:22.468Z,13.27
2022-09-27T19:10:20.931Z,13.22
2022-09-27T19:12:19.340Z,13.20
2022-09-27T19:14:21.062Z,13.27
2022-09-27T19:16:21.001Z,13.32
2022-09-27T19:18:20.006Z,13.25
2022-09-27T19:20:18.890Z,13.20
2022-09-27T19:22:17.419Z,13.25
2022-09-27T19:24:16.018Z,13.22
2022-09-27T19:26:16.676Z,13.26
2022-09-27T19:28:14.926Z,13.27
2022-09-27T19:30:15.413Z,13.31
2022-09-27T19:32:13.541Z,13.39
2022-09-27T19:34:12.125Z,13.34
2022-09-27T19:36:13.248Z,13.25
2022-09-27T19:38:11.445Z,13.19
2022-09-27T19:40:10.419Z,13.13
2022-09-27T19:42:08.584Z,13.19
2022-09-27T19:44:06.882Z,13.23
2022-09-27T19:46:08.111Z,13.24
2022-09-27T19:48:06.647Z,13.29
2022-09-27T19:50:05.867Z,13.33
2022-09-27T19:52:05.186Z,13.36
2022-09-27T19:54:04.384Z,13.29
2022-09-27T19:56:03.806Z,13.27
2022-09-27T19:58:01.934Z,13.26
2022-09-27T20:00:00.240Z,13.26
2022-09-27T20:02:00.014Z,13.31
2022-09-27T20:03:59.837Z,13.29
2022-09-27T20:05:59.304Z,13.32
2022-09-27T20:07:59.964Z,13.41
2022-09-27T20:09:58.525Z,13.36
2022-09-27T20:11:57.458Z,13.36
2022-09-27T20:13:55.594Z,13.37
2022-09-27T20:15:54.781Z,13.42
2022-09-27T20:17:54.906Z,13.46
2022-09-27T20:19:53.207Z,13.49
2022-09-27T20:21:51.852Z,13.45
2022-09-27T20:23:51.007Z,13.44
2022-09-27T20:25:49.195Z,13.40
2022-09-27T20:27:47.373Z,13.39
2022-09-27T20:29:45.604Z,13.41
2022-09-27T20:32:03.270Z,13.44
2022-09-27T20:34:03.455Z,13.38
2022-09-27T20:36:02.192Z,13.35
2022-09-27T20:38:01.195Z,13.31
2022-09-27T20:39:59.675Z,13.30
2022-09-27T20:41:58.048Z,13.29
2022-09-27T20:43:57.776Z,13.27
2022-09-27T20:46:02.265Z,13.15
2022-09-27T20:48:20.245Z,13.06
2022-09-27T20:50:19.930Z,13.00
2022-09-27T20:52:19.699Z,13.02
2022-09-27T20:54:32.240Z,13.12
2022-09-27T20:56:33.290Z,13.20
2022-09-27T20:58:32.555Z,13.24
2022-09-27T21:00:31.003Z,13.30
2022-09-27T21:02:29.136Z,13.29
2022-09-27T21:04:27.504Z,13.24
2022-09-27T21:06:27.985Z,13.24
2022-09-27T21:08:30.288Z,13.29
2022-09-27T21:10:28.685Z,13.28
2022-09-27T21:12:26.875Z,13.24
2022-09-27T21:14:25.100Z,13.25
2022-09-27T21:16:25.244Z,13.28
2022-09-27T21:18:27.668Z,13.28
2022-09-27T21:20:25.910Z,13.41
2022-09-27T21:22:25.654Z,13.48
2022-09-27T21:24:23.857Z,13.51
2022-09-27T21:26:23.416Z,13.51
2022-09-27T21:28:22.129Z,13.54
2022-09-27T21:30:20.422Z,13.51
2022-09-27T21:32:18.749Z,13.45
2022-09-27T21:34:19.400Z,13.39
2022-09-27T21:36:21.668Z,13.30
2022-09-27T21:38:21.446Z,13.21
2022-09-27T21:40:22.217Z,13.19
2022-09-27T21:42:20.377Z,13.20
2022-09-27T21:44:18.779Z,13.18
2022-09-27T21:46:20.408Z,13.14
2022-09-27T21:48:18.681Z,13.06
2022-09-27T21:50:16.906Z,12.97
2022-09-27T21:52:15.217Z,12.95
2022-09-27T21:54:16.621Z,12.95
2022-09-27T21:56:14.859Z,12.94
2022-09-27T21:58:14.016Z,12.88
2022-09-27T22:00:13.090Z,12.80
2022-09-27T22:02:11.372Z,12.70
2022-09-27T22:04:09.721Z,12.61
2022-09-27T22:06:11.186Z,12.62
2022-09-27T22:08:09.400Z,12.66
2022-09-27T22:10:09.862Z,12.68
2022-09-27T22:12:08.219Z,12.59
2022-09-27T22:14:07.313Z,12.66
2022-09-27T22:16:06.574Z,12.67
2022-09-27T22:18:05.588Z,12.59
2022-09-27T22:20:12.802Z,12.47
2022-09-27T22:22:10.957Z,12.44
2022-09-27T22:24:14.922Z,12.44
2022-09-27T22:26:18.713Z,12.48
2022-09-27T22:28:17.328Z,12.46
2022-09-27T22:30:15.828Z,12.46
2022-09-27T22:32:14.000Z,12.35
2022-09-27T22:34:18.585Z,12.37
2022-09-27T22:36:17.505Z,12.35
2022-09-27T22:38:16.236Z,12.31
2022-09-27T22:40:14.919Z,12.25
2022-09-27T22:42:14.410Z,12.21
2022-09-27T22:44:12.676Z,12.21
2022-09-27T22:46:11.413Z,12.22
2022-09-27T22:48:12.918Z,12.21
2022-09-27T22:50:11.977Z,12.20
2022-09-27T22:52:10.235Z,12.18
2022-09-27T22:54:09.187Z,12.13
2022-09-27T22:56:09.741Z,12.17
2022-09-27T22:58:09.474Z,12.14
2022-09-27T23:00:08.550Z,12.08
2022-09-27T23:02:06.693Z,12.04
2022-09-27T23:04:05.014Z,12.01
2022-09-27T23:06:04.246Z,11.98
2022-09-27T23:08:04.611Z,11.97
2022-09-27T23:10:02.960Z,11.97
2022-09-27T23:12:01.309Z,12.05
2022-09-27T23:14:00.760Z,12.06
2022-09-27T23:16:01.783Z,12.05
2022-09-27T23:18:00.102Z,11.99
2022-09-27T23:20:02.713Z,11.97
2022-09-27T23:22:03.708Z,11.98
2022-09-27T23:24:02.462Z,11.96
2022-09-27T23:26:01.894Z,11.96
2022-09-27T23:28:00.184Z,12.00
2022-09-27T23:30:00.195Z,11.99
2022-09-27T23:31:59.698Z,12.02
2022-09-27T23:33:59.210Z,11.99
2022-09-27T23:35:58.042Z,11.98
2022-09-27T23:37:57.772Z,12.02
2022-09-27T23:39:56.070Z,12.01
2022-09-27T23:41:54.246Z,12.06
2022-09-27T23:43:53.473Z,12.01
2022-09-27T23:45:57.250Z,12.02
2022-09-27T23:47:57.723Z,11.94
2022-09-27T23:49:56.780Z,11.90
2022-09-27T23:51:55.449Z,11.90
2022-09-27T23:53:53.626Z,11.95
2022-09-27T23:56:02.341Z,11.96
2022-09-27T23:58:00.583Z,11.99
2022-09-27T23:59:58.765Z,12.01
